首页
METAR-TAF:

METAR-TAF

机场 :

开普敦国际机场

開普敦, 南非共和國

纬度: 33-59S, 经度: 018-36E, 海拔: 42米

当前天气观测

该预报发布于36分钟前的13:00 UTC
风速24节,风向
温度 21°C
湿度 53%
气压 1020 hPa
能见度10公里或以上
少量云层高于3500英尺

METAR: FACT 171300Z 18024KT 9999 FEW035 21/11 Q1020 NOSIG

时间: 15:36 (13:36 UTC)

预报

该预报发布于3小时和36分钟前的10:00 UTC
预报有效从17日的 12点(UTC)到 18日的 18点(UTC)
风速18节,风向
能见度10公里或以上
少量云层高于3000英尺

TAF: FACT 171000Z 1712/1818 18018KT 9999 FEW030 TX27/1812Z TN13/1804Z

超过4000个机场的气象观测和天气预报(METAR&TAF报告)。

可查询的气象台以黄色和红色小点在地图上表示。

将鼠标移到小点上方,可查看气象台名称。

然后点击查看天气观测和预报。

如需切换地图:点击带黑十字的绿色按钮放大地图;点击带横线的绿色按钮缩小地图;或者点击绿色箭头查看邻近地区的地图。


METAR-TAF: